Time;durP1;ratioP1;P1;durP2;ratioP2;P2;SDS_P1;SDS_P2;PMS_P1;PMS_P2;Temp;Humidity;BMP_temperature;BMP_pressure;BME280_temperature;BME280_humidity;BME280_pressure;Samples;Min_cycle;Max_cycle;Signal;HPM_P1;HPM_P2
2023/11/02 00:01:27;;;;;;;1.03;0.53;;;11.40;99.90;;;;;;5037689;28;20034;-54
2023/11/02 00:03:53;;;;;;;2.30;0.60;;;11.50;99.90;;;;;;5037549;28;20029;-53
2023/11/02 00:06:21;;;;;;;1.47;0.20;;;11.50;99.90;;;;;;5037462;28;20029;-53
2023/11/02 00:09:21;;;;;;;1.87;0.47;;;11.50;99.90;;;;;;5036720;28;20060;-54
2023/11/02 00:12:02;;;;;;;1.40;0.80;;;11.40;99.90;;;;;;5037837;28;20037;-55
2023/11/02 00:14:39;;;;;;;2.00;0.30;;;11.40;99.90;;;;;;5037308;28;20029;-52
2023/11/02 00:17:31;;;;;;;2.53;0.60;;;11.40;99.90;;;;;;5037392;28;20037;-55
2023/11/02 00:19:58;;;;;;;1.60;0.40;;;11.40;99.90;;;;;;5037115;28;20516;-55
2023/11/02 00:22:26;;;;;;;3.80;1.47;;;11.40;99.90;;;;;;5037743;28;20107;-54
2023/11/02 00:24:52;;;;;;;9.70;4.30;;;11.40;99.90;;;;;;5037997;28;20040;-54
2023/11/02 00:27:18;;;;;;;2.33;0.60;;;11.40;99.90;;;;;;5038162;28;20044;-53
2023/11/02 00:29:43;;;;;;;1.00;0.40;;;11.50;99.90;;;;;;5020244;28;20033;-55
2023/11/02 00:32:09;;;;;;;0.40;0.40;;;11.50;99.90;;;;;;5037721;28;20035;-54
2023/11/02 00:34:39;;;;;;;0.30;0.30;;;11.40;99.90;;;;;;5020064;28;20083;-53
2023/11/02 00:37:05;;;;;;;;;;;11.40;99.90;;;;;;5020478;28;20033;-53
2023/11/02 00:39:30;;;;;;;2.10;0.30;;;11.40;99.90;;;;;;5019600;28;20425;-55
2023/11/02 00:41:56;;;;;;;1.27;0.37;;;11.50;99.90;;;;;;5019873;28;20053;-54
2023/11/02 00:44:23;;;;;;;1.20;0.47;;;11.40;99.90;;;;;;5019794;28;20040;-54
2023/11/02 00:46:49;;;;;;;1.03;0.40;;;11.50;99.90;;;;;;5019407;28;20048;-53
2023/11/02 00:49:21;;;;;;;1.43;0.83;;;11.50;99.90;;;;;;5036858;28;20475;-52
2023/11/02 00:52:00;;;;;;;1.43;0.50;;;11.60;99.90;;;;;;5037422;28;20096;-53
2023/11/02 00:54:48;;;;;;;2.30;0.50;;;11.60;99.90;;;;;;5019882;28;20343;-55
2023/11/02 00:57:15;;;;;;;3.60;0.73;;;11.60;99.90;;;;;;5019298;28;20478;-51
2023/11/02 00:59:41;;;;;;;0.87;0.53;;;11.50;99.90;;;;;;5019854;28;20083;-53
2023/11/02 01:02:07;;;;;;;0.67;0.30;;;11.60;99.90;;;;;;5036806;28;20041;-51
2023/11/02 01:04:42;;;;;;;0.77;0.40;;;11.50;99.90;;;;;;5019589;28;20029;-53
2023/11/02 01:07:09;;;;;;;2.40;0.50;;;11.60;99.90;;;;;;5036493;28;20025;-55
2023/11/02 01:09:35;;;;;;;1.73;0.50;;;11.60;99.90;;;;;;5018429;28;20026;-50
2023/11/02 01:12:00;;;;;;;1.23;0.20;;;11.60;99.90;;;;;;5019565;28;20029;-53
2023/11/02 01:14:48;;;;;;;5.20;0.50;;;11.60;99.90;;;;;;5036769;28;20312;-54
2023/11/02 01:17:23;;;;;;;0.27;0.20;;;11.60;99.90;;;;;;5019156;28;20378;-51
2023/11/02 01:20:03;;;;;;;3.20;0.40;;;11.60;99.90;;;;;;5018679;28;20128;-55
2023/11/02 01:22:29;;;;;;;0.57;0.30;;;11.70;99.90;;;;;;5019595;28;20414;-53
2023/11/02 01:25:05;;;;;;;1.60;0.40;;;11.60;99.90;;;;;;5019026;28;20025;-52
2023/11/02 01:27:31;;;;;;;1.47;0.50;;;11.60;99.90;;;;;;5036906;28;20022;-53
2023/11/02 01:29:57;;;;;;;4.03;0.53;;;11.60;99.90;;;;;;5036193;28;20076;-53
2023/11/02 01:32:26;;;;;;;1.30;0.43;;;11.60;99.90;;;;;;5018770;28;20029;-51
2023/11/02 01:34:52;;;;;;;0.40;0.30;;;11.70;99.90;;;;;;5036688;28;20037;-52
2023/11/02 01:37:19;;;;;;;0.60;0.30;;;11.70;99.90;;;;;;5002148;28;20029;-52
2023/11/02 01:39:45;;;;;;;2.07;0.50;;;11.80;99.90;;;;;;5036308;28;20033;-54
2023/11/02 01:42:22;;;;;;;2.07;0.70;;;11.80;99.90;;;;;;5036453;28;20034;-50
2023/11/02 01:44:59;;;;;;;1.07;0.30;;;11.80;99.90;;;;;;5036785;28;20034;-55
2023/11/02 01:47:47;;;;;;;0.53;0.20;;;11.80;99.90;;;;;;5018370;28;20111;-53
2023/11/02 01:50:33;;;;;;;0.67;0.30;;;11.90;99.90;;;;;;5018072;28;20061;-51
2023/11/02 01:53:25;;;;;;;3.70;0.97;;;11.90;99.90;;;;;;5018848;28;20036;-54
2023/11/02 01:55:58;;;;;;;2.67;0.40;;;11.90;99.90;;;;;;5001790;28;20399;-51
2023/11/02 01:58:31;;;;;;;1.47;0.47;;;11.90;99.90;;;;;;5018203;28;20057;-52
2023/11/02 02:01:08;;;;;;;0.85;0.40;;;11.90;99.90;;;;;;5018623;28;20049;-53
2023/11/02 02:03:49;;;;;;;3.70;0.40;;;11.90;99.90;;;;;;5018026;28;20033;-52
2023/11/02 02:06:37;;;;;;;0.60;0.30;;;11.90;99.90;;;;;;5017878;28;20033;-54
2023/11/02 02:09:29;;;;;;;1.80;0.45;;;11.90;99.90;;;;;;5018309;28;20036;-53
2023/11/02 02:12:05;;;;;;;3.77;0.67;;;11.90;99.90;;;;;;5015270;28;20087;-54
2023/11/02 02:14:51;;;;;;;1.27;0.35;;;11.90;99.90;;;;;;5018650;28;20029;-52
2023/11/02 02:17:34;;;;;;;1.07;0.57;;;11.90;99.90;;;;;;5035819;28;20128;-52
2023/11/02 02:20:08;;;;;;;2.27;0.37;;;11.90;99.90;;;;;;5017526;28;20030;-54
2023/11/02 02:22:40;;;;;;;1.67;0.50;;;11.90;99.90;;;;;;5018371;28;20033;-54
2023/11/02 02:25:35;;;;;;;3.57;0.60;;;11.90;99.90;;;;;;5002075;28;20026;-52
2023/11/02 02:28:29;;;;;;;1.97;0.40;;;11.90;99.90;;;;;;5035960;28;20393;-54
2023/11/02 02:31:01;;;;;;;2.37;0.47;;;11.90;99.90;;;;;;5036271;28;20059;-51
2023/11/02 02:33:39;;;;;;;1.53;0.40;;;11.90;99.90;;;;;;5018067;28;20064;-51
2023/11/02 02:36:13;;;;;;;0.40;0.30;;;11.90;99.90;;;;;;5018108;28;20036;-50
2023/11/02 02:38:49;;;;;;;3.40;0.40;;;11.90;99.90;;;;;;5035579;28;20108;-53
2023/11/02 02:41:17;;;;;;;1.80;0.70;;;11.90;99.90;;;;;;5018356;28;20030;-51
2023/11/02 02:43:44;;;;;;;1.67;0.50;;;11.90;99.90;;;;;;5035590;28;20048;-55
2023/11/02 02:46:11;;;;;;;0.83;0.37;;;11.80;99.90;;;;;;5017825;28;20497;-54
2023/11/02 02:48:38;;;;;;;4.30;0.73;;;11.90;99.90;;;;;;5035414;28;20040;-53
2023/11/02 02:51:08;;;;;;;2.63;0.67;;;11.90;99.90;;;;;;5018835;28;20026;-54
2023/11/02 02:53:37;;;;;;;2.00;0.57;;;11.90;99.90;;;;;;5017894;28;20068;-55
2023/11/02 02:56:07;;;;;;;;;;;11.90;99.90;;;;;;5018604;28;20128;-55
2023/11/02 02:58:42;;;;;;;1.37;0.60;;;11.90;99.90;;;;;;5017611;28;19909;-51
2023/11/02 03:01:09;;;;;;;3.43;0.67;;;11.90;99.90;;;;;;5036051;28;20370;-56
2023/11/02 03:03:38;;;;;;;3.97;0.80;;;11.90;99.90;;;;;;5016794;28;20041;-53
2023/11/02 03:06:06;;;;;;;2.55;0.50;;;11.90;99.90;;;;;;5016451;28;20064;-52
2023/11/02 03:08:32;;;;;;;2.70;0.60;;;11.90;99.90;;;;;;5018612;28;20089;-55
2023/11/02 03:10:59;;;;;;;2.03;0.63;;;11.90;99.90;;;;;;5020911;28;20475;-54
2023/11/02 03:13:28;;;;;;;1.73;1.10;;;11.90;99.90;;;;;;5039023;28;20033;-56
2023/11/02 03:15:57;;;;;;;3.13;0.70;;;11.90;99.90;;;;;;5020391;28;20060;-53
2023/11/02 03:18:31;;;;;;;1.25;0.65;;;11.90;99.90;;;;;;5039126;28;20040;-53
2023/11/02 03:20:57;;;;;;;2.97;0.60;;;11.90;99.90;;;;;;5039047;28;20053;-50
2023/11/02 03:23:51;;;;;;;1.43;0.63;;;11.90;99.90;;;;;;5021038;28;20025;-56
2023/11/02 03:26:26;;;;;;;1.53;0.63;;;11.90;99.90;;;;;;5038703;28;20068;-52
2023/11/02 03:29:13;;;;;;;1.83;0.47;;;11.90;99.90;;;;;;5021290;28;20106;-54
2023/11/02 03:31:54;;;;;;;1.40;0.57;;;12.00;99.90;;;;;;5038421;28;20041;-55
2023/11/02 03:34:47;;;;;;;2.20;0.60;;;12.00;99.90;;;;;;5021625;28;20045;-50
2023/11/02 03:37:50;;;;;;;1.90;0.73;;;12.00;99.90;;;;;;5039055;28;20057;-51
2023/11/02 03:40:35;;;;;;;2.33;0.70;;;12.00;99.90;;;;;;5037893;28;20037;-52
2023/11/02 03:43:21;;;;;;;4.77;0.73;;;12.00;99.90;;;;;;5021326;28;20487;-55
2023/11/02 03:46:04;;;;;;;3.23;0.73;;;12.00;99.90;;;;;;5020710;28;20033;-56
2023/11/02 03:48:44;;;;;;;1.50;0.50;;;12.00;99.90;;;;;;5038033;28;20125;-55
2023/11/02 03:51:47;;;;;;;2.77;1.07;;;11.90;99.90;;;;;;5038276;28;20040;-55
2023/11/02 03:54:37;;;;;;;1.83;0.60;;;11.90;99.90;;;;;;5038177;28;20037;-55
2023/11/02 03:57:11;;;;;;;5.47;1.07;;;11.90;99.90;;;;;;5020339;28;20033;-54
2023/11/02 03:59:49;;;;;;;0.83;0.80;;;11.90;99.90;;;;;;5038054;28;20037;-55
2023/11/02 04:02:31;;;;;;;4.37;0.80;;;11.80;99.90;;;;;;5038015;28;20033;-52
2023/11/02 04:05:21;;;;;;;4.23;0.60;;;11.80;99.90;;;;;;5038183;28;20037;-52
2023/11/02 04:08:24;;;;;;;3.97;0.60;;;11.90;99.90;;;;;;5029809;28;20042;-54
2023/11/02 04:11:01;;;;;;;1.83;0.60;;;11.90;99.90;;;;;;5038659;28;20132;-54
2023/11/02 04:13:43;;;;;;;1.30;0.40;;;11.90;99.90;;;;;;5037656;28;20033;-54
2023/11/02 04:16:09;;;;;;;2.67;0.80;;;11.90;99.90;;;;;;5037405;28;20144;-54
2023/11/02 04:18:34;;;;;;;1.60;0.63;;;11.90;99.90;;;;;;5036831;28;20037;-55
2023/11/02 04:21:00;;;;;;;1.83;0.60;;;12.00;99.90;;;;;;5037404;28;20090;-54
2023/11/02 04:23:26;;;;;;;2.90;0.60;;;12.00;99.90;;;;;;5037525;28;20033;-55
2023/11/02 04:25:54;;;;;;;0.63;0.37;;;12.00;99.90;;;;;;5019127;28;20033;-56
2023/11/02 04:28:20;;;;;;;1.43;0.40;;;12.00;99.90;;;;;;5037289;28;20026;-54
2023/11/02 04:30:47;;;;;;;0.97;0.60;;;12.00;99.90;;;;;;5037662;28;20428;-56
2023/11/02 04:33:13;;;;;;;0.27;0.13;;;12.00;99.90;;;;;;5037337;28;20351;-55
2023/11/02 04:35:40;;;;;;;2.40;0.80;;;12.10;99.90;;;;;;5036909;28;20033;-54
2023/11/02 04:38:07;;;;;;;3.50;0.47;;;12.10;99.90;;;;;;5036734;28;20068;-54
2023/11/02 04:40:34;;;;;;;1.30;0.50;;;12.10;99.90;;;;;;5036833;28;20030;-54
2023/11/02 04:43:00;;;;;;;1.47;0.37;;;12.10;99.90;;;;;;5038461;28;20563;-54
2023/11/02 04:45:27;;;;;;;1.33;0.40;;;12.10;99.90;;;;;;5038208;28;19913;-52
2023/11/02 04:47:53;;;;;;;2.10;0.73;;;12.00;99.90;;;;;;5038101;28;20029;-51
2023/11/02 04:50:22;;;;;;;1.83;0.40;;;11.90;99.90;;;;;;5038361;28;20425;-50
2023/11/02 04:52:52;;;;;;;0.68;0.38;;;12.00;99.90;;;;;;5038254;28;20038;-51
2023/11/02 04:55:19;;;;;;;1.03;0.40;;;12.00;99.90;;;;;;5037488;28;20060;-51
2023/11/02 04:57:45;;;;;;;1.53;0.33;;;12.00;99.90;;;;;;5037130;28;20045;-50
2023/11/02 05:00:11;;;;;;;1.40;0.33;;;12.10;99.90;;;;;;5037497;28;20049;-53
2023/11/02 05:02:37;;;;;;;1.80;0.23;;;12.10;99.90;;;;;;5037806;28;20041;-51
2023/11/02 05:05:03;;;;;;;2.00;0.50;;;12.10;99.90;;;;;;5037043;28;20034;-51
2023/11/02 05:07:29;;;;;;;1.20;0.63;;;12.10;99.90;;;;;;5036556;28;20032;-52
2023/11/02 05:09:55;;;;;;;3.07;0.30;;;12.10;99.90;;;;;;5034803;28;20079;-55
2023/11/02 05:12:20;;;;;;;0.33;0.20;;;12.10;99.90;;;;;;5034100;28;20030;-52
2023/11/02 05:14:46;;;;;;;0.67;0.43;;;12.10;99.90;;;;;;5036850;28;20041;-55
2023/11/02 05:17:12;;;;;;;1.63;0.40;;;12.10;99.90;;;;;;5036435;28;20031;-51
2023/11/02 05:19:38;;;;;;;0.87;0.30;;;12.10;99.90;;;;;;5036829;28;20466;-53
2023/11/02 05:22:04;;;;;;;1.60;0.40;;;12.10;99.90;;;;;;5036272;28;20037;-55
2023/11/02 05:24:30;;;;;;;0.93;0.30;;;12.10;99.90;;;;;;5036074;28;20120;-54
2023/11/02 05:26:55;;;;;;;0.53;0.30;;;12.10;99.90;;;;;;5018993;28;20060;-54
2023/11/02 05:29:21;;;;;;;0.47;0.20;;;12.10;99.90;;;;;;5036152;28;20514;-54
2023/11/02 05:31:47;;;;;;;4.30;0.50;;;12.10;99.90;;;;;;5035527;28;20029;-55
2023/11/02 05:34:13;;;;;;;1.17;0.50;;;12.20;99.90;;;;;;5036819;28;20033;-54
2023/11/02 05:36:39;;;;;;;5.03;0.20;;;12.20;99.90;;;;;;5035712;28;20500;-52
2023/11/02 05:39:06;;;;;;;0.07;0.07;;;12.20;99.90;;;;;;5035993;28;20021;-51
2023/11/02 05:41:32;;;;;;;3.03;0.67;;;12.20;99.90;;;;;;5036901;28;20056;-50
2023/11/02 05:43:57;;;;;;;2.23;0.50;;;12.30;99.90;;;;;;5018884;28;20037;-52
2023/11/02 05:46:23;;;;;;;5.30;0.53;;;12.20;99.90;;;;;;5037671;28;20033;-55
2023/11/02 05:48:49;;;;;;;1.40;0.60;;;12.20;99.90;;;;;;5036933;28;20080;-55
2023/11/02 05:51:15;;;;;;;1.10;0.23;;;12.30;99.90;;;;;;5036823;28;20021;-53
2023/11/02 05:53:41;;;;;;;2.53;0.57;;;12.30;99.90;;;;;;5018739;28;20146;-54
2023/11/02 05:56:07;;;;;;;3.63;0.40;;;12.40;99.90;;;;;;5035953;28;20083;-55
2023/11/02 05:58:33;;;;;;;0.80;0.50;;;12.40;99.90;;;;;;5035984;28;20029;-54
2023/11/02 06:00:58;;;;;;;1.03;0.40;;;12.40;99.90;;;;;;5036116;28;20040;-50
2023/11/02 06:03:25;;;;;;;1.90;0.73;;;12.40;99.90;;;;;;5036346;28;20022;-52
2023/11/02 06:05:50;;;;;;;1.73;0.57;;;12.50;99.90;;;;;;5035840;28;20060;-53
2023/11/02 06:08:16;;;;;;;0.77;0.20;;;12.50;99.90;;;;;;5035836;28;20385;-54
2023/11/02 06:10:42;;;;;;;0.00;0.00;;;12.50;99.90;;;;;;5035381;28;20098;-53
2023/11/02 06:13:07;;;;;;;0.17;0.07;;;12.60;99.90;;;;;;5017892;28;20037;-53
2023/11/02 06:15:33;;;;;;;0.87;0.40;;;12.60;99.90;;;;;;5035477;28;20033;-50
2023/11/02 06:17:59;;;;;;;2.17;0.50;;;12.60;99.90;;;;;;5035867;28;20040;-52
2023/11/02 06:20:24;;;;;;;2.63;0.40;;;12.70;99.90;;;;;;5035582;28;20040;-51
2023/11/02 06:22:50;;;;;;;0.43;0.25;;;12.70;99.90;;;;;;5035634;28;20089;-54
2023/11/02 06:25:16;;;;;;;1.42;0.20;;;12.80;99.90;;;;;;5035601;28;20397;-50
2023/11/02 06:27:42;;;;;;;2.95;0.40;;;12.80;99.90;;;;;;5035733;28;20029;-50
2023/11/02 06:30:09;;;;;;;2.28;0.82;;;12.80;99.90;;;;;;5035397;28;20112;-54
2023/11/02 06:32:35;;;;;;;4.13;0.90;;;12.80;99.90;;;;;;5035073;28;20022;-55
2023/11/02 06:35:00;;;;;;;0.17;0.15;;;12.80;99.90;;;;;;5018250;28;20044;-55
2023/11/02 06:37:26;;;;;;;2.10;0.25;;;12.80;99.90;;;;;;5034730;28;20037;-54
2023/11/02 06:39:52;;;;;;;1.40;0.35;;;12.80;99.90;;;;;;5034626;28;20057;-52
2023/11/02 06:42:17;;;;;;;1.23;0.40;;;12.80;99.90;;;;;;5034901;28;20037;-54
2023/11/02 06:44:43;;;;;;;0.63;0.38;;;12.90;99.90;;;;;;5035332;28;20103;-55
2023/11/02 06:47:11;;;;;;;1.77;0.40;;;12.80;99.90;;;;;;5035175;28;20022;-52
2023/11/02 06:49:36;;;;;;;0.55;0.30;;;12.90;99.90;;;;;;5034725;28;20336;-54
2023/11/02 06:52:02;;;;;;;0.95;0.32;;;12.80;99.90;;;;;;5035510;28;20087;-52
2023/11/02 06:54:28;;;;;;;0.60;0.30;;;12.80;99.90;;;;;;5034459;28;20064;-54
2023/11/02 06:56:54;;;;;;;3.80;1.00;;;12.80;99.90;;;;;;5035108;28;20120;-54
2023/11/02 06:59:19;;;;;;;6.47;2.28;;;12.90;99.90;;;;;;5035134;28;20053;-54
2023/11/02 07:01:46;;;;;;;1.90;0.55;;;12.80;99.90;;;;;;5035554;28;20026;-53
2023/11/02 07:04:12;;;;;;;1.13;0.30;;;12.90;99.90;;;;;;5017994;28;20033;-51
2023/11/02 07:06:38;;;;;;;2.80;0.60;;;12.80;99.90;;;;;;5034842;28;20116;-51
2023/11/02 07:09:05;;;;;;;0.63;0.20;;;12.80;99.90;;;;;;5035170;28;20116;-53
2023/11/02 07:11:31;;;;;;;1.15;0.40;;;12.60;99.90;;;;;;5035393;28;20026;-54
2023/11/02 07:13:57;;;;;;;5.40;1.17;;;12.50;99.90;;;;;;5035228;28;20485;-53
2023/11/02 07:16:22;;;;;;;2.27;0.57;;;12.30;99.90;;;;;;5034994;28;20041;-54
2023/11/02 07:18:48;;;;;;;0.93;0.35;;;12.10;99.90;;;;;;5035324;28;20030;-55
2023/11/02 07:21:14;;;;;;;0.60;0.43;;;12.00;99.90;;;;;;5035522;28;20113;-54
2023/11/02 07:23:39;;;;;;;0.50;0.30;;;11.70;99.90;;;;;;5034975;28;20474;-52
2023/11/02 07:26:08;;;;;;;0.63;0.40;;;11.70;99.90;;;;;;5017252;28;20103;-53
2023/11/02 07:28:35;;;;;;;1.00;0.38;;;11.60;99.90;;;;;;5035175;28;20036;-51
2023/11/02 07:31:01;;;;;;;1.97;0.47;;;11.60;99.90;;;;;;5035286;28;20109;-55
2023/11/02 07:33:26;;;;;;;1.83;0.40;;;11.50;99.90;;;;;;5017373;28;20494;-51
2023/11/02 07:35:52;;;;;;;2.93;0.57;;;11.50;99.90;;;;;;5035257;28;20458;-51
2023/11/02 07:38:18;;;;;;;0.93;0.30;;;11.50;99.90;;;;;;5016921;28;20026;-54
2023/11/02 07:40:44;;;;;;;1.37;0.33;;;11.50;99.90;;;;;;5034730;28;20029;-55
2023/11/02 07:43:10;;;;;;;2.87;0.40;;;11.40;99.90;;;;;;5034863;28;20574;-54
2023/11/02 07:45:35;;;;;;;2.03;0.50;;;11.50;99.90;;;;;;5034635;28;20166;-55
2023/11/02 07:48:02;;;;;;;0.80;0.40;;;11.50;99.90;;;;;;5034740;28;20022;-55
2023/11/02 07:50:28;;;;;;;2.13;0.40;;;11.50;99.90;;;;;;5034079;28;20075;-51
2023/11/02 07:52:53;;;;;;;2.37;0.47;;;11.50;99.90;;;;;;5034958;28;20033;-51
2023/11/02 07:55:19;;;;;;;0.47;0.30;;;11.50;99.90;;;;;;5037474;28;20044;-54
2023/11/02 07:57:46;;;;;;;0.50;0.30;;;11.50;99.90;;;;;;5038109;28;20033;-53
2023/11/02 08:00:13;;;;;;;1.87;0.50;;;11.60;99.90;;;;;;5020222;28;20037;-53
2023/11/02 08:02:38;;;;;;;2.43;0.50;;;11.60;99.90;;;;;;5038796;28;20026;-52
2023/11/02 08:05:04;;;;;;;2.17;0.30;;;11.70;99.90;;;;;;5037463;28;20034;-55
2023/11/02 08:07:30;;;;;;;1.30;0.37;;;11.70;99.90;;;;;;5037970;28;20030;-54
2023/11/02 08:09:55;;;;;;;1.27;0.20;;;11.70;99.90;;;;;;5037401;28;20061;-54
2023/11/02 08:12:21;;;;;;;1.17;0.40;;;11.70;99.90;;;;;;5038057;28;20021;-53
2023/11/02 08:14:47;;;;;;;0.40;0.40;;;11.70;99.90;;;;;;5038690;28;20043;-55
2023/11/02 08:17:17;;;;;;;0.30;0.20;;;11.70;99.90;;;;;;5038123;28;20056;-55
2023/11/02 08:19:44;;;;;;;0.30;0.23;;;11.70;99.90;;;;;;5037513;28;20108;-53
2023/11/02 08:22:10;;;;;;;1.50;0.40;;;11.70;99.90;;;;;;5037493;28;20049;-54
2023/11/02 08:24:37;;;;;;;0.43;0.30;;;11.80;99.90;;;;;;5020386;28;20109;-51
2023/11/02 08:27:05;;;;;;;0.50;0.40;;;11.80;99.90;;;;;;5037766;28;20025;-54
2023/11/02 08:29:31;;;;;;;5.20;1.43;;;11.80;99.90;;;;;;5037312;28;20030;-53
2023/11/02 08:31:57;;;;;;;1.03;0.67;;;11.90;99.90;;;;;;5037575;28;20482;-55
2023/11/02 08:34:23;;;;;;;0.20;0.20;;;12.00;99.90;;;;;;5037561;28;20092;-55
2023/11/02 08:36:48;;;;;;;1.70;0.50;;;12.10;99.90;;;;;;5037247;28;20038;-55
2023/11/02 08:39:14;;;;;;;0.67;0.50;;;12.10;99.90;;;;;;5036718;28;20033;-55
2023/11/02 08:41:40;;;;;;;0.10;0.10;;;12.20;99.90;;;;;;5037763;28;20478;-53
2023/11/02 08:44:06;;;;;;;2.70;0.30;;;12.30;99.90;;;;;;5037293;28;20033;-53
2023/11/02 08:46:36;;;;;;;0.67;0.23;;;12.30;99.90;;;;;;5037029;28;20029;-53
2023/11/02 08:49:02;;;;;;;0.50;0.30;;;12.40;99.90;;;;;;5036968;28;20021;-54
2023/11/02 08:51:28;;;;;;;0.55;0.35;;;12.50;99.90;;;;;;5020000;28;20125;-52
2023/11/02 08:53:54;;;;;;;0.85;0.30;;;12.60;99.90;;;;;;5037411;28;20026;-55
2023/11/02 08:56:20;;;;;;;0.55;0.50;;;12.60;99.90;;;;;;5036526;28;20030;-55
2023/11/02 08:58:50;;;;;;;1.85;0.32;;;12.70;99.90;;;;;;5036813;28;20030;-52
2023/11/02 09:01:25;;;;;;;0.60;0.20;;;12.90;99.90;;;;;;5037355;28;20061;-55
2023/11/02 09:03:52;;;;;;;2.25;0.57;;;13.00;99.90;;;;;;5037203;28;20041;-55
2023/11/02 09:06:22;;;;;;;1.60;0.40;;;13.00;99.90;;;;;;5037178;28;20022;-54
2023/11/02 09:08:49;;;;;;;0.93;0.40;;;13.00;99.90;;;;;;5036589;28;20021;-54
2023/11/02 09:11:15;;;;;;;0.73;0.60;;;12.90;99.90;;;;;;5037001;28;20030;-55
2023/11/02 09:13:41;;;;;;;2.33;0.60;;;12.80;99.90;;;;;;5019253;28;20033;-53
2023/11/02 09:16:07;;;;;;;0.60;0.20;;;12.80;99.90;;;;;;5036241;28;20548;-53
2023/11/02 09:18:33;;;;;;;0.93;0.40;;;12.80;99.90;;;;;;5036319;28;20033;-55
2023/11/02 09:20:58;;;;;;;0.55;0.38;;;12.80;99.90;;;;;;5036416;28;20030;-54
2023/11/02 09:23:26;;;;;;;1.33;0.40;;;12.80;99.90;;;;;;5036487;28;20401;-55
2023/11/02 09:25:52;;;;;;;2.03;0.50;;;12.80;99.90;;;;;;5036463;28;20048;-53
2023/11/02 09:28:18;;;;;;;1.17;0.70;;;12.80;99.90;;;;;;5018840;28;20032;-53
2023/11/02 09:30:46;;;;;;;0.40;0.40;;;12.80;99.90;;;;;;5036244;28;20033;-53
2023/11/02 09:33:12;;;;;;;1.05;0.40;;;12.90;99.90;;;;;;5036091;28;20486;-50
2023/11/02 09:35:38;;;;;;;1.00;0.50;;;12.90;99.90;;;;;;5036333;28;20029;-54
2023/11/02 09:38:04;;;;;;;1.02;0.32;;;13.00;99.90;;;;;;5036844;28;20041;-55
2023/11/02 09:40:31;;;;;;;1.05;0.43;;;13.10;99.90;;;;;;5037002;28;20067;-54
2023/11/02 09:43:02;;;;;;;3.05;0.50;;;13.10;99.90;;;;;;5036829;28;20451;-52
2023/11/02 09:45:29;;;;;;;1.45;0.60;;;13.20;99.90;;;;;;5036401;28;20095;-55
2023/11/02 09:47:56;;;;;;;1.02;0.30;;;13.20;99.90;;;;;;5018520;28;20037;-53
2023/11/02 09:50:23;;;;;;;0.25;0.20;;;13.30;99.90;;;;;;5018564;28;20030;-51
2023/11/02 09:52:48;;;;;;;2.10;0.50;;;13.40;99.90;;;;;;5036199;28;20026;-50
2023/11/02 09:55:15;;;;;;;2.83;0.90;;;13.40;99.90;;;;;;5036706;28;20087;-51
2023/11/02 09:57:42;;;;;;;0.75;0.35;;;13.40;99.90;;;;;;5036089;28;20033;-55
2023/11/02 10:00:10;;;;;;;2.03;0.52;;;13.50;99.90;;;;;;5037097;28;20030;-55
2023/11/02 10:02:40;;;;;;;1.45;0.38;;;13.50;99.90;;;;;;5036534;28;20059;-50
2023/11/02 10:05:08;;;;;;;1.05;0.38;;;13.60;99.90;;;;;;5036387;28;20072;-54
2023/11/02 10:07:35;;;;;;;3.22;0.63;;;13.70;99.90;;;;;;5035908;28;20029;-53
2023/11/02 10:10:01;;;;;;;0.75;0.45;;;13.70;99.90;;;;;;5036428;28;20045;-49
2023/11/02 10:12:26;;;;;;;1.35;0.22;;;13.70;99.90;;;;;;5018694;28;20033;-54
2023/11/02 10:14:52;;;;;;;5.05;0.50;;;13.80;99.90;;;;;;5036275;28;20073;-52
2023/11/02 10:17:20;;;;;;;0.32;0.30;;;13.80;99.90;;;;;;5017820;28;20029;-52
2023/11/02 10:19:45;;;;;;;4.13;0.47;;;13.80;99.90;;;;;;5035774;28;20033;-54
2023/11/02 10:22:11;;;;;;;2.70;0.60;;;13.80;99.90;;;;;;5035965;28;20296;-52
2023/11/02 10:24:36;;;;;;;1.92;0.43;;;13.90;99.90;;;;;;5036355;28;20403;-54
2023/11/02 10:27:04;;;;;;;0.50;0.35;;;13.90;99.90;;;;;;5017837;28;20486;-50
2023/11/02 10:29:30;;;;;;;1.02;0.40;;;13.90;99.90;;;;;;5018513;28;20068;-55
2023/11/02 10:31:57;;;;;;;1.98;1.08;;;13.80;99.90;;;;;;5035397;28;20055;-54
2023/11/02 10:34:25;;;;;;;1.73;0.70;;;13.80;99.90;;;;;;5035933;28;20040;-54
2023/11/02 10:36:52;;;;;;;1.50;0.50;;;13.90;99.90;;;;;;5018541;28;20045;-53
2023/11/02 10:39:25;;;;;;;0.82;0.47;;;13.90;99.90;;;;;;5035879;28;20033;-54
2023/11/02 10:41:58;;;;;;;0.40;0.40;;;14.00;99.90;;;;;;5036076;28;20120;-51
2023/11/02 10:44:28;;;;;;;2.28;0.63;;;14.00;99.90;;;;;;5018727;28;20063;-54
2023/11/02 10:47:01;;;;;;;2.67;0.50;;;14.20;99.90;;;;;;5035492;28;20069;-54
2023/11/02 10:49:34;;;;;;;1.60;0.40;;;14.20;99.90;;;;;;5035696;28;20395;-51
2023/11/02 10:52:03;;;;;;;2.22;0.55;;;14.20;99.90;;;;;;5036070;28;20075;-51
2023/11/02 10:54:44;;;;;;;3.95;0.65;;;14.20;99.90;;;;;;5036048;28;20044;-49
2023/11/02 10:57:16;;;;;;;3.63;0.50;;;14.20;99.90;;;;;;5018243;28;20044;-54
2023/11/02 10:59:43;;;;;;;2.28;0.50;;;14.30;99.90;;;;;;5035970;28;20041;-50
2023/11/02 11:02:11;;;;;;;4.85;0.65;;;14.40;99.90;;;;;;5036744;28;20309;-50
2023/11/02 11:04:41;;;;;;;1.83;0.80;;;14.60;99.90;;;;;;5036622;28;20367;-52
2023/11/02 11:07:09;;;;;;;1.02;0.40;;;14.70;99.90;;;;;;5036057;28;20030;-50
2023/11/02 11:09:35;;;;;;;2.25;0.70;;;15.10;99.90;;;;;;5035773;28;20069;-53
2023/11/02 11:12:02;;;;;;;5.07;0.60;;;15.80;99.90;;;;;;5036279;28;20030;-53
2023/11/02 11:14:29;;;;;;;2.25;0.60;;;16.40;99.90;;;;;;5035457;28;20041;-51
2023/11/02 11:16:59;;;;;;;1.70;0.47;;;16.70;99.90;;;;;;5035446;28;20593;-52
2023/11/02 11:19:29;;;;;;;4.03;0.68;;;16.50;99.90;;;;;;5035923;28;20034;-51
2023/11/02 11:21:57;;;;;;;1.70;0.38;;;16.10;99.90;;;;;;5036147;28;20029;-49
2023/11/02 11:24:31;;;;;;;3.65;0.80;;;15.80;99.90;;;;;;5035966;28;20105;-53
2023/11/02 11:26:58;;;;;;;6.55;0.88;;;15.80;99.90;;;;;;5035813;28;20037;-49
2023/11/02 11:29:41;;;;;;;3.10;0.50;;;16.00;99.90;;;;;;5036835;28;20048;-50
2023/11/02 11:32:09;;;;;;;2.47;0.85;;;16.30;99.90;;;;;;5038928;28;20033;-52
2023/11/02 11:34:53;;;;;;;1.45;0.70;;;16.60;99.90;;;;;;5037213;28;20395;-52
2023/11/02 11:37:37;;;;;;;2.80;0.43;;;17.10;99.90;;;;;;5037756;28;20044;-53
2023/11/02 11:40:05;;;;;;;3.28;0.98;;;17.30;99.90;;;;;;5037971;28;20037;-52
2023/11/02 11:43:08;;;;;;;2.22;0.50;;;16.90;99.90;;;;;;5038865;28;20041;-54
2023/11/02 11:45:46;;;;;;;3.28;0.73;;;17.00;99.90;;;;;;5038328;28;20124;-53
2023/11/02 11:48:32;;;;;;;3.42;0.80;;;17.20;99.90;;;;;;5038588;28;20040;-54
2023/11/02 11:50:58;;;;;;;3.65;0.85;;;17.10;99.90;;;;;;5038779;28;20026;-55
2023/11/02 11:53:25;;;;;;;2.20;0.50;;;17.00;99.90;;;;;;5021270;28;20030;-55
2023/11/02 11:55:56;;;;;;;1.98;0.50;;;16.60;99.90;;;;;;5038246;28;20268;-55
2023/11/02 11:58:44;;;;;;;2.90;0.65;;;16.30;99.90;;;;;;5038660;28;20029;-54
2023/11/02 12:01:15;;;;;;;1.52;0.70;;;16.10;99.90;;;;;;5038084;28;20041;-55
2023/11/02 12:03:45;;;;;;;5.43;0.75;;;15.80;99.90;;;;;;5038556;28;20068;-54
2023/11/02 12:06:12;;;;;;;4.82;0.52;;;15.70;99.90;;;;;;5038355;28;20482;-53
2023/11/02 12:08:43;;;;;;;5.85;0.60;;;15.60;99.90;;;;;;5038410;28;20030;-52
2023/11/02 12:11:12;;;;;;;3.70;0.80;;;15.70;99.90;;;;;;5038588;28;20040;-55
2023/11/02 12:13:50;;;;;;;4.72;1.33;;;16.00;99.90;;;;;;5004091;28;20072;-54
2023/11/02 12:16:15;;;;;;;5.68;0.63;;;16.30;99.90;;;;;;5037800;28;20520;-53
2023/11/02 12:18:43;;;;;;;1.30;0.40;;;16.40;99.90;;;;;;5038029;28;20033;-53
2023/11/02 12:21:18;;;;;;;5.80;1.45;;;16.30;99.90;;;;;;5038258;28;20030;-53
2023/11/02 12:23:44;;;;;;;1.88;0.70;;;16.60;99.90;;;;;;5038017;28;20037;-54
2023/11/02 12:26:10;;;;;;;2.78;0.65;;;17.20;99.70;;;;;;5037500;28;20128;-53
2023/11/02 12:29:06;;;;;;;4.93;0.70;;;17.90;98.20;;;;;;5037796;28;20033;-56
2023/11/02 12:31:34;;;;;;;2.10;0.60;;;18.30;95.30;;;;;;5036499;28;20041;-53
2023/11/02 12:34:05;;;;;;;3.22;0.57;;;18.10;95.30;;;;;;5037969;28;20029;-54
2023/11/02 12:36:32;;;;;;;5.95;1.52;;;17.70;95.80;;;;;;5037198;28;20033;-54
2023/11/02 12:38:58;;;;;;;2.03;0.77;;;17.40;96.60;;;;;;5038014;28;20033;-54
2023/11/02 12:41:31;;;;;;;1.35;0.40;;;17.00;96.80;;;;;;5036705;28;20064;-54
2023/11/02 12:44:14;;;;;;;4.18;0.65;;;16.50;97.70;;;;;;5037680;28;20051;-54
2023/11/02 12:46:44;;;;;;;3.70;0.65;;;16.30;98.00;;;;;;5037398;28;20033;-54
2023/11/02 12:49:21;;;;;;;4.43;0.80;;;16.10;98.80;;;;;;5037111;28;20034;-55
2023/11/02 12:51:49;;;;;;;4.60;0.60;;;16.00;99.30;;;;;;5037388;28;20075;-54
2023/11/02 12:54:16;;;;;;;3.33;0.83;;;15.90;99.10;;;;;;5019814;28;20029;-53
2023/11/02 12:56:44;;;;;;;2.70;0.82;;;16.00;99.70;;;;;;5019124;28;20439;-55
2023/11/02 12:59:10;;;;;;;4.63;0.80;;;15.90;99.70;;;;;;5036480;28;20029;-53
2023/11/02 13:01:54;;;;;;;6.28;1.05;;;16.30;98.90;;;;;;5036870;28;20025;-55
2023/11/02 13:04:24;;;;;;;2.28;0.47;;;16.40;97.80;;;;;;5037116;28;20065;-55